Time;durP1;ratioP1;P1;durP2;ratioP2;P2;SDS_P1;SDS_P2;PMS_P1;PMS_P2;Temp;Humidity;BMP_temperature;BMP_pressure;BME280_temperature;BME280_humidity;BME280_pressure;Samples;Min_cycle;Max_cycle;Signal;HPM_P1;HPM_P2
2023/06/01 00:01:04;;;;;;;15.23;7.95;;;;;;;16.69;58.08;102186.47;6240353;23;20011;-92
2023/06/01 00:03:29;;;;;;;13.77;7.50;;;;;;;16.47;58.43;102171.41;6240601;23;20004;-91
2023/06/01 00:05:58;;;;;;;12.63;8.10;;;;;;;16.62;59.46;102185.03;6213190;23;20008;-92
2023/06/01 00:08:23;;;;;;;11.00;7.28;;;;;;;16.57;59.47;102186.09;6240985;23;20008;-92
2023/06/01 00:10:49;;;;;;;11.98;7.95;;;;;;;16.51;59.37;102180.16;6213032;23;20492;-90
2023/06/01 00:13:14;;;;;;;13.85;8.02;;;;;;;16.46;59.27;102180.38;6239612;23;20083;-92
2023/06/01 00:15:40;;;;;;;16.02;8.07;;;;;;;16.37;59.96;102183.44;6241812;23;20071;-92
2023/06/01 00:18:05;;;;;;;10.65;7.47;;;;;;;16.34;59.60;102186.22;6216225;23;20481;-92
2023/06/01 00:20:32;;;;;;;12.75;7.35;;;;;;;16.34;59.85;102186.22;6215025;23;20015;-92
2023/06/01 00:22:59;;;;;;;16.90;8.80;;;;;;;16.29;60.21;102185.53;6215222;23;20087;-91
2023/06/01 00:25:24;;;;;;;15.18;8.10;;;;;;;16.27;59.97;102176.72;6213669;23;20003;-92
2023/06/01 00:27:50;;;;;;;12.93;8.20;;;;;;;16.26;59.87;102170.53;6242545;23;20367;-92
2023/06/01 00:30:15;;;;;;;12.95;7.88;;;;;;;16.23;59.58;102165.34;6241633;23;20083;-91
2023/06/01 00:32:41;;;;;;;12.70;8.43;;;;;;;16.14;60.11;102173.72;6213886;23;20083;-92
2023/06/01 00:35:06;;;;;;;14.02;8.85;;;;;;;15.99;60.29;102177.00;6213285;23;20313;-92
2023/06/01 00:37:31;;;;;;;14.35;8.25;;;;;;;15.93;60.39;102182.59;6215622;23;20091;-93
2023/06/01 00:39:57;;;;;;;14.90;8.50;;;;;;;15.80;60.99;102188.44;6241467;23;20410;-91
2023/06/01 00:42:22;;;;;;;11.93;8.32;;;;;;;15.75;61.22;102177.09;6214771;23;20008;-92
2023/06/01 00:44:48;;;;;;;14.98;9.23;;;;;;;15.70;61.13;102178.22;6214285;23;20425;-92
2023/06/01 00:47:14;;;;;;;17.20;9.32;;;;;;;15.56;61.84;102170.72;6241157;23;20023;-91
2023/06/01 00:49:39;;;;;;;14.68;8.48;;;;;;;15.51;61.61;102183.38;6242078;23;20436;-92
2023/06/01 00:52:05;;;;;;;15.05;8.75;;;;;;;15.51;61.64;102176.25;6214094;23;20016;-92
2023/06/01 00:54:30;;;;;;;13.20;8.48;;;;;;;15.46;61.61;102175.56;6214173;23;20011;-93
2023/06/01 00:56:56;;;;;;;20.60;9.10;;;;;;;15.38;62.21;102179.44;6215211;23;20050;-92
2023/06/01 00:59:22;;;;;;;14.23;8.90;;;;;;;15.38;62.01;102166.13;6214524;23;20086;-92
2023/06/01 01:01:47;;;;;;;15.48;9.13;;;;;;;15.40;62.05;102173.13;6213775;23;20008;-92
2023/06/01 01:04:14;;;;;;;13.82;8.82;;;;;;;15.36;61.94;102173.31;6242545;23;20474;-92
2023/06/01 01:07:06;;;;;;;13.73;8.48;;;;;;;15.45;61.02;102196.94;6241460;23;20126;-93
2023/06/01 01:09:34;;;;;;;15.43;9.70;;;;;;;15.22;62.11;102200.50;6213763;23;20007;-92
2023/06/01 01:12:07;;;;;;;14.32;8.85;;;;;;;15.25;62.07;102195.94;6240595;23;20011;-92
2023/06/01 01:15:08;;;;;;;17.05;9.00;;;;;;;15.27;62.52;102202.06;6214961;23;20035;-92
2023/06/01 01:17:38;;;;;;;15.20;8.53;;;;;;;15.22;61.83;102201.34;6165467;23;20057;-92
2023/06/01 01:20:17;;;;;;;15.82;9.48;;;;;;;15.03;62.26;102200.31;6212674;23;20057;-92
2023/06/01 01:23:02;;;;;;;14.90;9.65;;;;;;;14.88;63.24;102193.75;6241773;23;20012;-92
2023/06/01 01:25:46;;;;;;;13.93;9.13;;;;;;;14.96;62.96;102194.31;6214081;23;20015;-92
2023/06/01 01:28:33;;;;;;;14.25;9.20;;;;;;;14.97;62.66;102185.44;6216143;23;20020;-92
2023/06/01 01:31:01;;;;;;;15.90;10.23;;;;;;;14.72;63.18;102177.44;6214293;23;20416;-92
2023/06/01 01:33:27;;;;;;;14.07;9.52;;;;;;;14.73;63.25;102183.66;6215048;23;20447;-91
2023/06/01 01:35:53;;;;;;;19.52;10.48;;;;;;;14.70;63.58;102181.97;6241372;23;20008;-90
2023/06/01 01:38:18;;;;;;;17.88;10.52;;;;;;;14.65;63.75;102191.06;6242099;23;20138;-91
2023/06/01 01:40:44;;;;;;;15.18;10.65;;;;;;;14.64;63.99;102194.63;6214333;23;20625;-92
2023/06/01 01:43:09;;;;;;;16.90;10.38;;;;;;;14.65;63.28;102194.59;6242218;23;20004;-92
2023/06/01 01:45:35;;;;;;;18.10;10.27;;;;;;;14.58;64.04;102201.03;6241725;23;20012;-92
2023/06/01 01:48:11;;;;;;;13.85;9.40;;;;;;;14.56;63.48;102204.69;6214897;23;20440;-92
2023/06/01 01:50:45;;;;;;;18.05;10.35;;;;;;;14.43;64.35;102202.41;6213810;23;20371;-92
2023/06/01 01:53:11;;;;;;;18.77;10.93;;;;;;;14.30;64.26;102201.09;6241331;23;20019;-91
2023/06/01 01:55:36;;;;;;;18.33;11.23;;;;;;;14.27;64.46;102201.22;6240590;23;20007;-91
2023/06/01 01:58:03;;;;;;;17.88;10.95;;;;;;;14.18;64.41;102199.72;6213802;23;20004;-91
2023/06/01 02:00:30;;;;;;;18.70;11.13;;;;;;;14.20;64.74;102202.31;6241042;23;20336;-91
2023/06/01 02:02:55;;;;;;;17.58;10.52;;;;;;;14.22;64.20;102196.03;6213066;23;20008;-92
2023/06/01 02:05:21;;;;;;;19.52;11.77;;;;;;;14.04;64.32;102189.53;6239912;23;20333;-92
2023/06/01 02:07:46;;;;;;;18.08;11.73;;;;;;;14.03;64.63;102202.88;6214932;23;20008;-91
2023/06/01 02:10:11;;;;;;;19.80;11.60;;;;;;;14.02;64.97;102199.34;6240528;23;20003;-91
2023/06/01 02:12:37;;;;;;;18.15;11.38;;;;;;;14.00;64.71;102193.22;6240036;23;20032;-92
2023/06/01 02:15:03;;;;;;;18.77;11.20;;;;;;;13.95;64.88;102192.50;6240529;23;20083;-91
2023/06/01 02:17:28;;;;;;;18.90;12.25;;;;;;;13.96;64.96;102193.38;6241044;23;20003;-92
2023/06/01 02:19:53;;;;;;;23.48;12.35;;;;;;;13.87;64.86;102191.00;6215741;23;20090;-93
2023/06/01 02:22:19;;;;;;;20.50;11.80;;;;;;;13.87;64.95;102191.88;6241808;23;20004;-91
2023/06/01 02:24:45;;;;;;;17.88;11.68;;;;;;;13.76;65.13;102183.38;6242198;23;20035;-92
2023/06/01 02:27:10;;;;;;;17.13;10.93;;;;;;;13.68;65.61;102183.63;6213631;23;20037;-92
2023/06/01 02:29:35;;;;;;;20.92;11.25;;;;;;;13.71;65.68;102198.63;6242591;23;20007;-93
2023/06/01 02:32:01;;;;;;;19.20;11.35;;;;;;;13.68;65.24;102188.94;6241255;23;20338;-92
2023/06/01 02:34:26;;;;;;;15.90;10.70;;;;;;;13.72;65.34;102195.03;6241125;23;20004;-92
2023/06/01 02:36:55;;;;;;;19.15;10.73;;;;;;;13.63;65.23;102182.91;6215587;23;20039;-92
2023/06/01 02:39:20;;;;;;;18.70;10.02;;;;;;;13.61;65.67;102181.19;6214248;23;20057;-93
2023/06/01 02:41:46;;;;;;;18.08;10.77;;;;;;;13.64;65.41;102184.63;6214876;23;20420;-93
2023/06/01 02:44:11;;;;;;;17.63;10.18;;;;;;;13.67;65.33;102191.66;6214077;23;20470;-92
2023/06/01 02:46:36;;;;;;;15.63;8.98;;;;;;;13.66;65.18;102185.47;6241772;23;20392;-93
2023/06/01 02:49:03;;;;;;;16.92;9.23;;;;;;;13.68;64.93;102180.97;6215845;23;20014;-92
2023/06/01 02:51:30;;;;;;;16.52;9.27;;;;;;;13.60;65.30;102188.31;6212974;23;20032;-93
2023/06/01 02:53:56;;;;;;;16.02;9.07;;;;;;;13.48;65.57;102186.03;6214371;23;20078;-92
2023/06/01 02:56:21;;;;;;;16.90;9.48;;;;;;;13.50;65.59;102186.84;6213433;23;20000;-93
2023/06/01 02:58:46;;;;;;;17.17;8.57;;;;;;;13.65;65.55;102204.09;6214259;23;20043;-92
2023/06/01 03:01:12;;;;;;;13.15;7.85;;;;;;;13.66;65.59;102193.44;6240568;23;20000;-92
2023/06/01 03:03:38;;;;;;;13.20;8.95;;;;;;;13.71;65.01;102201.28;6213181;23;20023;-93
2023/06/01 03:06:05;;;;;;;12.30;8.50;;;;;;;13.78;65.31;102208.97;6213737;23;20609;-92
2023/06/01 03:08:31;;;;;;;11.52;8.07;;;;;;;13.70;65.16;102191.53;6215193;23;20004;-92
2023/06/01 03:10:56;;;;;;;12.27;7.88;;;;;;;13.70;65.24;102195.06;6213669;23;20057;-93
2023/06/01 03:13:21;;;;;;;14.20;8.32;;;;;;;13.81;65.06;102201.84;6240793;23;20079;-92
2023/06/01 03:15:47;;;;;;;15.23;7.75;;;;;;;13.87;64.97;102201.66;6214101;23;20000;-94
2023/06/01 03:18:13;;;;;;;16.15;8.30;;;;;;;13.92;64.55;102202.34;6214401;23;20708;-92
2023/06/01 03:20:38;;;;;;;15.30;8.20;;;;;;;13.94;64.46;102201.41;6214655;23;20363;-93
2023/06/01 03:23:03;;;;;;;14.38;8.48;;;;;;;13.79;64.46;102201.88;6240695;23;20440;-92
2023/06/01 03:25:29;;;;;;;14.73;8.50;;;;;;;13.60;65.38;102196.28;6214358;23;20267;-92
2023/06/01 03:27:54;;;;;;;13.32;8.02;;;;;;;13.57;65.49;102198.16;6213682;23;20062;-93
2023/06/01 03:30:21;;;;;;;14.48;8.20;;;;;;;13.48;65.54;102186.03;6240730;23;20012;-93
2023/06/01 03:32:47;;;;;;;13.15;7.78;;;;;;;13.53;65.32;102198.25;6213607;23;20032;-92
2023/06/01 03:35:13;;;;;;;12.93;7.93;;;;;;;13.60;65.26;102200.72;6241286;23;20007;-93
2023/06/01 03:37:41;;;;;;;13.82;7.50;;;;;;;13.58;65.83;102206.09;6213783;23;20455;-93
2023/06/01 03:40:10;;;;;;;11.73;7.35;;;;;;;13.50;65.60;102201.00;6241709;23;20305;-93
2023/06/01 03:42:41;;;;;;;13.27;8.13;;;;;;;13.41;65.87;102203.06;6239110;23;20083;-92
2023/06/01 03:45:07;;;;;;;14.48;7.85;;;;;;;13.26;65.97;102197.31;6214471;23;20031;-93
2023/06/01 03:47:33;;;;;;;10.50;6.68;;;;;;;13.34;66.25;102204.19;6240275;23;20420;-92
2023/06/01 03:49:59;;;;;;;9.63;6.35;;;;;;;13.36;65.93;102199.69;6216904;23;20002;-92
2023/06/01 03:52:28;;;;;;;10.52;6.88;;;;;;;13.56;65.53;102210.56;6215080;23;20044;-92
2023/06/01 03:54:55;;;;;;;12.77;6.72;;;;;;;13.58;65.81;102211.41;6216566;23;20018;-93
2023/06/01 03:57:20;;;;;;;10.15;7.28;;;;;;;13.61;65.20;102202.44;6215236;23;20443;-93
2023/06/01 03:59:46;;;;;;;9.48;6.88;;;;;;;13.68;64.96;102201.34;6243012;23;20302;-93
2023/06/01 04:02:11;;;;;;;11.25;6.90;;;;;;;13.56;64.58;102193.75;6215935;23;20000;-92
2023/06/01 04:04:37;;;;;;;13.25;7.32;;;;;;;13.63;64.61;102190.88;6216506;23;20006;-92
2023/06/01 04:07:03;;;;;;;13.65;8.00;;;;;;;13.68;64.44;102194.25;6216192;23;20040;-92
2023/06/01 04:09:29;;;;;;;12.88;7.55;;;;;;;13.75;64.39;102209.06;6242603;23;20026;-93
2023/06/01 04:11:55;;;;;;;10.85;6.63;;;;;;;13.86;63.54;102207.88;6243084;23;20487;-93
2023/06/01 04:14:20;;;;;;;13.82;7.55;;;;;;;13.94;64.00;102212.03;6216593;23;20443;-91
2023/06/01 04:16:46;;;;;;;10.93;6.55;;;;;;;13.97;63.72;102203.06;6216339;23;20004;-92
2023/06/01 04:19:12;;;;;;;12.18;7.22;;;;;;;14.01;63.66;102210.91;6244039;23;20003;-91
2023/06/01 04:21:37;;;;;;;11.07;6.70;;;;;;;14.10;63.43;102203.56;6242855;23;20000;-91
2023/06/01 04:24:02;;;;;;;11.52;6.88;;;;;;;14.09;63.02;102205.34;6216066;23;20459;-92
2023/06/01 04:26:27;;;;;;;10.88;6.68;;;;;;;14.17;63.25;102216.59;6242883;23;20085;-91
2023/06/01 04:28:56;;;;;;;13.23;7.07;;;;;;;14.18;62.76;102213.03;6215738;23;20348;-91
2023/06/01 04:31:22;;;;;;;11.23;6.78;;;;;;;14.19;63.35;102214.75;6215829;23;20424;-91
2023/06/01 04:33:56;;;;;;;11.45;6.85;;;;;;;14.20;62.40;102223.59;6243146;23;20011;-91
2023/06/01 04:36:22;;;;;;;15.20;7.72;;;;;;;14.16;62.42;102216.63;6215897;23;20511;-92
2023/06/01 04:38:53;;;;;;;12.57;7.80;;;;;;;14.01;62.03;102212.69;6242493;23;20003;-91
2023/06/01 04:41:28;;;;;;;14.10;8.05;;;;;;;13.95;62.32;102219.09;6216060;23;20008;-92
2023/06/01 04:43:54;;;;;;;11.70;8.38;;;;;;;13.90;61.90;102225.47;6242045;23;20412;-91
2023/06/01 04:46:24;;;;;;;11.07;7.72;;;;;;;13.89;62.36;102221.06;6241937;23;20007;-91
2023/06/01 04:48:55;;;;;;;13.07;8.27;;;;;;;13.89;62.56;102218.41;6215436;23;20008;-91
2023/06/01 04:51:21;;;;;;;12.77;8.10;;;;;;;14.00;62.02;102234.91;6242333;23;20367;-91
2023/06/01 04:53:51;;;;;;;15.40;8.95;;;;;;;13.88;61.67;102219.31;6216301;23;20015;-91
2023/06/01 04:56:18;;;;;;;13.48;8.63;;;;;;;13.86;62.11;102237.13;6213846;23;20015;-91
2023/06/01 04:58:46;;;;;;;13.90;8.13;;;;;;;13.83;62.13;102226.59;6241474;23;20011;-91
2023/06/01 05:01:14;;;;;;;15.73;8.10;;;;;;;13.88;61.92;102225.50;6242102;23;20008;-91
2023/06/01 05:03:41;;;;;;;14.57;8.70;;;;;;;13.85;61.90;102219.41;6242926;23;20011;-92
2023/06/01 05:06:06;;;;;;;12.02;7.90;;;;;;;13.83;61.61;102215.94;6241396;23;20032;-91
2023/06/01 05:08:33;;;;;;;12.23;8.27;;;;;;;13.84;61.58;102213.22;6242592;23;20023;-91
2023/06/01 05:10:58;;;;;;;13.07;8.38;;;;;;;13.86;62.13;102210.53;6214536;23;20008;-91
2023/06/01 05:13:24;;;;;;;13.82;8.13;;;;;;;13.89;61.67;102213.09;6241076;23;20111;-92
2023/06/01 05:15:49;;;;;;;11.15;8.38;;;;;;;13.89;61.65;102208.63;6241057;23;20008;-91
2023/06/01 05:18:15;;;;;;;14.10;8.20;;;;;;;13.97;61.64;102208.41;6242479;23;20015;-90
2023/06/01 05:20:40;;;;;;;13.02;8.30;;;;;;;14.08;61.02;102202.72;6242170;23;20498;-93
2023/06/01 05:23:05;;;;;;;14.00;8.15;;;;;;;14.15;61.21;102209.59;6241974;23;20010;-91
2023/06/01 05:25:30;;;;;;;15.48;8.80;;;;;;;14.31;61.39;102210.81;6242417;23;20061;-92
2023/06/01 05:27:56;;;;;;;13.70;7.57;;;;;;;14.37;60.91;102213.28;6215138;23;20004;-91
2023/06/01 05:30:21;;;;;;;15.20;7.63;;;;;;;14.45;60.41;102207.66;6214853;23;20333;-91
2023/06/01 05:32:46;;;;;;;13.38;8.57;;;;;;;14.57;59.91;102199.31;6242636;23;20138;-91
2023/06/01 05:35:11;;;;;;;13.68;8.00;;;;;;;14.72;59.84;102214.72;6215189;23;20011;-91
2023/06/01 05:37:37;;;;;;;13.95;7.32;;;;;;;14.74;59.37;102214.69;6214367;23;20027;-91
2023/06/01 05:40:04;;;;;;;13.38;7.75;;;;;;;14.76;59.82;102208.38;6213123;23;20408;-91
2023/06/01 05:42:29;;;;;;;15.35;8.07;;;;;;;14.82;59.06;102204.63;6214400;23;20433;-91
2023/06/01 05:44:54;;;;;;;11.85;8.05;;;;;;;14.89;59.55;102210.59;6215632;23;20058;-91
2023/06/01 05:47:20;;;;;;;11.95;7.82;;;;;;;14.96;59.06;102206.78;6242183;23;20000;-92
2023/06/01 05:49:45;;;;;;;12.88;7.57;;;;;;;14.94;59.24;102198.84;6240576;23;20079;-91
2023/06/01 05:52:13;;;;;;;18.05;8.40;;;;;;;15.04;59.17;102210.03;6214581;23;20020;-90
2023/06/01 05:54:38;;;;;;;15.82;8.23;;;;;;;15.10;58.78;102201.81;6242613;23;20000;-91
2023/06/01 05:57:05;;;;;;;12.35;7.85;;;;;;;15.29;58.68;102207.31;6241987;23;20336;-91
2023/06/01 05:59:30;;;;;;;11.15;7.63;;;;;;;15.29;58.32;102221.53;6215121;23;20004;-90
2023/06/01 06:01:56;;;;;;;13.50;7.65;;;;;;;15.31;58.13;102222.31;6240226;23;20014;-91
2023/06/01 06:04:21;;;;;;;13.95;8.25;;;;;;;15.25;57.86;102209.25;6242156;23;20015;-91
2023/06/01 06:06:47;;;;;;;15.63;7.65;;;;;;;15.28;57.61;102219.75;6241725;23;20000;-91
2023/06/01 06:09:13;;;;;;;13.20;7.75;;;;;;;15.24;57.73;102212.81;6213806;23;20019;-91
2023/06/01 06:11:40;;;;;;;13.93;7.00;;;;;;;15.24;57.62;102212.81;6213489;23;20424;-91
2023/06/01 06:14:05;;;;;;;11.18;7.10;;;;;;;15.15;57.22;102215.81;6215406;23;20008;-91
2023/06/01 06:16:30;;;;;;;11.23;7.95;;;;;;;15.21;57.81;102223.59;6214559;23;20008;-91
2023/06/01 06:18:56;;;;;;;15.07;8.32;;;;;;;15.05;57.69;102223.28;6215461;23;20424;-91
2023/06/01 06:21:21;;;;;;;11.60;7.53;;;;;;;14.99;58.12;102220.84;6241346;23;20039;-91
2023/06/01 06:23:47;;;;;;;13.98;8.30;;;;;;;14.96;57.84;102228.09;6241495;23;20031;-91
2023/06/01 06:26:13;;;;;;;14.23;8.10;;;;;;;14.91;58.46;102232.72;6239706;23;20079;-91
2023/06/01 06:28:38;;;;;;;12.85;8.10;;;;;;;14.96;58.59;102225.41;6215085;23;20042;-91
2023/06/01 06:31:03;;;;;;;15.05;8.60;;;;;;;15.03;58.44;102219.81;6240804;23;20000;-91
2023/06/01 06:33:29;;;;;;;14.65;8.75;;;;;;;15.30;58.21;102220.59;6240571;23;20007;-91
2023/06/01 06:35:54;;;;;;;13.38;7.50;;;;;;;15.40;57.85;102220.25;6213756;23;20004;-91
2023/06/01 06:38:19;;;;;;;13.68;7.93;;;;;;;15.51;57.41;102223.34;6242493;23;20000;-92
2023/06/01 06:40:45;;;;;;;14.55;7.93;;;;;;;15.63;57.48;102214.03;6214172;23;20326;-92
2023/06/01 06:43:10;;;;;;;14.45;7.53;;;;;;;15.88;56.87;102221.94;6214200;23;20007;-91
2023/06/01 06:45:35;;;;;;;11.10;7.50;;;;;;;16.05;56.89;102211.47;6213851;23;20012;-90
2023/06/01 06:48:01;;;;;;;10.50;6.78;;;;;;;16.18;57.50;102215.38;6240909;23;20424;-90
2023/06/01 06:50:27;;;;;;;12.95;7.63;;;;;;;16.28;56.10;102224.72;6242101;23;20008;-91
2023/06/01 06:52:53;;;;;;;13.27;7.88;;;;;;;16.44;56.82;102216.06;6240158;23;20458;-91
2023/06/01 06:55:18;;;;;;;10.32;7.38;;;;;;;16.75;54.80;102221.84;6213680;23;20087;-91
2023/06/01 06:57:43;;;;;;;11.52;7.93;;;;;;;17.01;55.04;102219.78;6213546;23;20035;-91
2023/06/01 07:00:14;;;;;;;14.10;7.43;;;;;;;17.23;53.63;102225.91;6239730;23;20435;-91
2023/06/01 07:02:40;;;;;;;13.07;8.52;;;;;;;17.49;53.99;102216.69;6212470;23;20446;-91
2023/06/01 07:05:08;;;;;;;13.23;8.15;;;;;;;17.63;51.37;102233.88;6241008;23;20008;-91
2023/06/01 07:07:33;;;;;;;12.15;7.57;;;;;;;17.60;52.21;102224.19;6214699;23;20044;-92
2023/06/01 07:09:58;;;;;;;15.85;7.80;;;;;;;17.59;52.06;102234.03;6214813;23;20008;-92
2023/06/01 07:12:24;;;;;;;14.93;7.78;;;;;;;17.63;51.40;102236.56;6241111;23;19996;-92
2023/06/01 07:14:49;;;;;;;14.48;7.85;;;;;;;17.63;51.86;102229.41;6214497;23;20015;-92
2023/06/01 07:17:15;;;;;;;12.02;7.65;;;;;;;17.66;51.39;102234.59;6239341;23;20004;-92
2023/06/01 07:19:40;;;;;;;14.65;7.47;;;;;;;17.83;51.83;102232.00;6240473;23;20027;-91
2023/06/01 07:22:05;;;;;;;18.17;7.40;;;;;;;17.94;50.70;102227.94;6241176;23;20004;-91
2023/06/01 07:24:31;;;;;;;15.27;7.43;;;;;;;17.98;50.62;102224.16;6216430;23;20087;-91
2023/06/01 07:26:57;;;;;;;16.63;8.57;;;;;;;18.00;50.92;102215.13;6215990;23;20420;-93
2023/06/01 07:29:22;;;;;;;13.38;7.53;;;;;;;18.09;50.85;102232.53;6214780;23;20008;-92
2023/06/01 07:31:51;;;;;;;12.80;7.70;;;;;;;18.61;50.80;102228.09;6216147;23;20054;-94
2023/06/01 07:34:16;;;;;;;14.98;7.95;;;;;;;19.14;48.84;102212.81;6215989;23;20087;-92
2023/06/01 07:36:41;;;;;;;16.20;7.13;;;;;;;19.57;47.05;102226.53;6216042;23;20035;-93
2023/06/01 07:39:08;;;;;;;13.15;7.25;;;;;;;19.97;47.67;102224.34;6216400;23;20395;-92
2023/06/01 07:41:34;;;;;;;16.73;7.72;;;;;;;20.48;44.40;102230.31;6214888;23;20004;-92
2023/06/01 07:43:59;;;;;;;12.80;7.90;;;;;;;20.91;44.89;102220.50;6240729;23;20015;-92
2023/06/01 07:46:25;;;;;;;14.82;7.93;;;;;;;21.21;44.12;102225.78;6215336;23;20008;-92
2023/06/01 07:48:50;;;;;;;11.70;7.40;;;;;;;21.48;43.19;102214.25;6214189;23;20058;-93
2023/06/01 07:51:16;;;;;;;15.30;8.18;;;;;;;22.10;42.40;102222.72;6215377;23;20424;-93
2023/06/01 07:53:43;;;;;;;13.82;7.20;;;;;;;22.29;40.55;102211.63;6214905;23;20099;-93
2023/06/01 07:56:08;;;;;;;10.48;8.07;;;;;;;22.51;40.07;102222.66;6216134;23;20385;-92
2023/06/01 07:58:33;;;;;;;13.52;7.55;;;;;;;22.83;38.87;102222.28;6242851;23;20242;-92
2023/06/01 08:00:59;;;;;;;12.50;7.95;;;;;;;22.84;39.74;102218.59;6242602;23;20014;-93
2023/06/01 08:03:25;;;;;;;13.32;7.68;;;;;;;23.26;39.37;102222.81;6216480;23;20054;-91
2023/06/01 08:05:54;;;;;;;12.07;7.82;;;;;;;23.49;38.99;102213.03;6246093;23;20012;-92
2023/06/01 08:08:20;;;;;;;12.70;7.75;;;;;;;23.79;38.08;102211.81;6242828;23;20012;-92
2023/06/01 08:10:46;;;;;;;14.43;8.10;;;;;;;23.95;36.74;102220.50;6242777;23;20008;-92
2023/06/01 08:13:13;;;;;;;12.48;7.45;;;;;;;24.11;37.28;102209.41;6216189;23;20058;-92
2023/06/01 08:15:38;;;;;;;11.40;7.57;;;;;;;24.52;37.32;102211.66;6241763;23;20008;-93
2023/06/01 08:18:06;;;;;;;15.15;8.15;;;;;;;24.97;35.93;102219.00;6215464;23;20091;-92
2023/06/01 08:20:31;;;;;;;10.57;7.55;;;;;;;24.73;35.94;102209.13;6241943;23;20000;-92
2023/06/01 08:22:56;;;;;;;15.63;8.32;;;;;;;24.89;36.19;102196.09;6244567;23;20000;-92
2023/06/01 08:25:22;;;;;;;14.63;8.20;;;;;;;24.92;35.74;102211.25;6243038;23;20046;-92
2023/06/01 08:27:49;;;;;;;18.88;8.10;;;;;;;24.88;35.73;102201.63;6218847;23;20333;-92
2023/06/01 08:30:14;;;;;;;12.07;7.55;;;;;;;25.19;35.64;102197.38;6246141;23;20075;-93
2023/06/01 08:32:40;;;;;;;16.02;7.47;;;;;;;25.79;33.72;102209.63;6217674;23;20381;-93
2023/06/01 08:35:08;;;;;;;15.65;8.60;;;;;;;25.69;33.65;102205.91;6216597;23;20011;-92
2023/06/01 08:37:34;;;;;;;14.98;8.07;;;;;;;25.80;32.57;102205.06;6216217;23;19996;-93
2023/06/01 08:39:59;;;;;;;15.30;7.97;;;;;;;26.02;33.69;102204.13;6248777;23;20014;-93
2023/06/01 08:42:50;;;;;;;15.23;8.30;;;;;;;26.30;32.96;102214.38;6218357;23;20019;-93
2023/06/01 08:45:17;;;;;;;13.18;7.85;;;;;;;26.35;32.04;102211.28;6216783;23;20429;-93
2023/06/01 08:47:43;;;;;;;17.58;8.57;;;;;;;26.45;31.70;102213.09;6245006;23;20004;-94
2023/06/01 08:50:10;;;;;;;13.45;7.95;;;;;;;26.66;31.87;102182.38;6217491;23;20365;-93
2023/06/01 08:52:37;;;;;;;14.45;8.40;;;;;;;26.63;32.46;102193.50;6230476;23;20012;-92
2023/06/01 08:55:03;;;;;;;11.75;8.40;;;;;;;26.60;31.52;102186.47;6214380;23;20001;-94
2023/06/01 08:57:32;;;;;;;16.60;8.70;;;;;;;26.75;31.25;102197.84;6214474;23;20051;-93
2023/06/01 09:00:01;;;;;;;14.00;8.05;;;;;;;26.54;31.99;102194.31;6212426;23;20100;-94
2023/06/01 09:02:27;;;;;;;13.25;8.80;;;;;;;26.27;32.74;102190.22;6210293;23;20016;-92
2023/06/01 09:04:52;;;;;;;13.85;8.95;;;;;;;26.01;31.48;102188.84;6211105;23;20228;-92
2023/06/01 09:07:19;;;;;;;12.80;9.13;;;;;;;26.09;32.31;102198.06;6210772;23;20050;-92
2023/06/01 09:09:45;;;;;;;13.95;8.30;;;;;;;26.08;33.19;102190.06;6209267;23;20008;-93
2023/06/01 09:12:31;;;;;;;13.00;8.85;;;;;;;26.06;33.49;102183.91;6209723;23;20016;-92
2023/06/01 09:15:08;;;;;;;15.60;8.80;;;;;;;25.69;33.67;102176.13;6211066;23;20560;-93
2023/06/01 09:17:34;;;;;;;13.77;9.00;;;;;;;25.78;33.32;102167.25;6208835;23;20011;-94
2023/06/01 09:20:00;;;;;;;14.77;8.20;;;;;;;25.99;34.28;102180.00;6210099;23;20420;-94
2023/06/01 09:22:38;;;;;;;13.60;8.13;;;;;;;26.14;33.61;102174.13;6212594;23;20012;-93
2023/06/01 09:25:04;;;;;;;15.82;8.73;;;;;;;25.98;33.04;102171.03;6213746;23;20011;-93
2023/06/01 09:27:29;;;;;;;10.95;8.40;;;;;;;25.85;33.84;102173.91;6210119;23;20317;-92
2023/06/01 09:30:01;;;;;;;13.18;8.60;;;;;;;25.85;34.62;102167.63;6209855;23;20009;-93
2023/06/01 09:32:27;;;;;;;;;;;;;;;26.18;34.89;102172.03;6210845;23;20495;-93
2023/06/01 09:34:55;;;;;;;21.75;9.50;;;;;;;25.91;33.22;102162.53;6210856;23;19954;-93
2023/06/01 09:37:20;;;;;;;18.17;9.30;;;;;;;25.42;32.88;102146.78;6214765;23;20000;-93
2023/06/01 09:39:45;;;;;;;12.05;9.00;;;;;;;25.35;32.77;102137.44;6210471;23;20180;-93
2023/06/01 09:42:11;;;;;;;12.68;8.23;;;;;;;25.84;33.88;102149.66;6210133;23;20429;-94
2023/06/01 09:44:41;;;;;;;12.57;7.55;;;;;;;26.26;33.86;102155.13;6212517;23;20007;-93
2023/06/01 09:47:12;;;;;;;13.07;7.85;;;;;;;26.50;33.59;102146.75;6212368;23;20339;-93
2023/06/01 09:49:38;;;;;;;13.45;8.73;;;;;;;26.64;32.06;102149.97;6213987;23;20471;-95
2023/06/01 09:52:04;;;;;;;13.93;8.73;;;;;;;26.52;32.41;102153.72;6217032;23;20020;-93
2023/06/01 09:54:31;;;;;;;13.13;8.38;;;;;;;26.60;33.11;102143.06;6216210;23;20004;-94
2023/06/01 09:56:58;;;;;;;14.55;9.07;;;;;;;26.88;30.80;102144.22;6243437;23;20444;-94
2023/06/01 09:59:25;;;;;;;13.02;8.32;;;;;;;27.16;31.71;102149.94;6216711;23;20004;-93
2023/06/01 10:01:52;;;;;;;15.00;9.13;;;;;;;27.26;32.12;102152.66;6241254;23;20186;-94
2023/06/01 10:04:22;;;;;;;15.02;9.65;;;;;;;27.33;30.86;102156.56;6243598;23;20012;-93
2023/06/01 10:06:51;;;;;;;14.93;9.32;;;;;;;27.14;30.94;102147.34;6214045;23;20099;-93
2023/06/01 10:09:19;;;;;;;15.15;9.40;;;;;;;27.08;31.04;102142.47;6214038;23;20399;-92
2023/06/01 10:11:48;;;;;;;13.00;9.30;;;;;;;27.24;31.74;102144.66;6214940;23;20480;-93
2023/06/01 10:14:16;;;;;;;16.80;9.00;;;;;;;27.43;32.71;102136.56;6239624;23;20004;-93
2023/06/01 10:16:43;;;;;;;16.65;9.73;;;;;;;27.30;29.33;102146.81;6216531;23;20031;-93
2023/06/01 10:19:10;;;;;;;13.18;8.55;;;;;;;27.14;31.78;102135.63;6190667;23;20055;-94
2023/06/01 10:21:35;;;;;;;13.95;8.45;;;;;;;27.43;30.98;102136.56;6216343;23;20008;-93
2023/06/01 10:24:01;;;;;;;15.80;8.88;;;;;;;27.57;30.71;102146.16;6216287;23;20004;-93
2023/06/01 10:26:30;;;;;;;12.68;9.07;;;;;;;27.73;29.83;102137.47;6190425;23;20345;-93
2023/06/01 10:28:57;;;;;;;17.95;9.50;;;;;;;27.82;28.56;102130.34;6242181;23;20451;-93
2023/06/01 10:31:40;;;;;;;11.95;8.70;;;;;;;28.11;29.61;102133.88;6215063;23;20058;-93
2023/06/01 10:34:07;;;;;;;15.45;9.00;;;;;;;28.21;30.15;102137.47;6213554;23;20004;-94
2023/06/01 10:36:51;;;;;;;14.02;9.95;;;;;;;28.22;29.99;102132.88;6215469;23;20455;-94
2023/06/01 10:39:30;;;;;;;16.05;10.30;;;;;;;27.82;30.65;102120.31;6218970;23;20004;-95
2023/06/01 10:41:58;;;;;;;13.50;9.75;;;;;;;27.38;29.93;102127.97;6243863;23;20348;-94
2023/06/01 10:44:41;;;;;;;14.55;10.02;;;;;;;27.24;30.74;102133.81;6242304;23;20418;-93
2023/06/01 10:47:10;;;;;;;11.25;9.07;;;;;;;27.65;31.12;102131.84;6243414;23;20027;-93
2023/06/01 10:49:50;;;;;;;14.23;10.02;;;;;;;28.07;29.87;102135.19;6214621;23;20012;-93
2023/06/01 10:52:29;;;;;;;15.85;9.70;;;;;;;28.31;29.89;102132.00;6221003;23;20411;-93
2023/06/01 10:55:15;;;;;;;17.65;9.95;;;;;;;28.00;28.56;102131.34;6218549;23;20015;-93
2023/06/01 10:57:43;;;;;;;16.08;9.38;;;;;;;28.09;29.80;102127.75;6220987;23;20004;-94
2023/06/01 11:00:14;;;;;;;12.98;10.07;;;;;;;28.12;30.62;102123.88;6219695;23;20379;-93
2023/06/01 11:02:53;;;;;;;17.15;10.75;;;;;;;28.34;28.73;102125.41;6242888;23;20085;-94
2023/06/01 11:05:39;;;;;;;13.57;9.45;;;;;;;28.62;29.25;102131.81;6243501;23;20420;-93
2023/06/01 11:08:22;;;;;;;13.20;9.90;;;;;;;28.40;28.68;102123.00;6217995;23;20433;-93
2023/06/01 11:10:54;;;;;;;19.25;10.07;;;;;;;28.03;29.56;102111.16;6218829;23;20011;-93
2023/06/01 11:13:33;;;;;;;13.55;9.65;;;;;;;28.20;28.88;102113.13;6217268;23;20034;-92
2023/06/01 11:16:04;;;;;;;27.35;9.48;;;;;;;28.64;28.27;102100.72;6243782;23;20000;-92
2023/06/01 11:18:55;;;;;;;13.00;8.95;;;;;;;28.80;28.41;102101.94;6245542;23;20004;-93